CYQT

Thunder Bay Airport

Thunder Bay, , Canada
METAR CYQT 250100Z 07006KT 20SM OVC140 14/13 A2986 RMK AC8 SLP118 DENSITY ALT 800FT
Observed Flight Rules
May-25 @ 01:00 UTC (21 minutes ago) Visual Flight Rules
Wind Visibility Clouds
70° at 6 knots 20 miles
  • Overcast at 14,000' AGL
Temperatures Readings
Current 14°C / 57°F
Dewpoint 13°C / 55°F
Humidity 94%
Altimeter 29.86" Hg
Pressure 1011.8 hPa
Elevation 199
METAR CYQT 250100Z 07006KT 20SM OVC140 14/13 A2986 RMK AC8 SLP118 DENSITY ALT 800FT
Observed Flight Rules
May-25 @ 01:00 UTC
(21 minutes ago)
VFR
Wind Visibility
70° at 6 knots 20 miles
Clouds
  • Overcast at 14,000' AGL
Temperature Dewpoint
14°C / 57°F 13°C / 55°F
Humidity Altimeter Pressure
94% 29.86" Hg 1011.8 hPa